createdAt,value
2022-11-06T00:01:37.432Z,101200.43
2022-11-06T00:04:04.424Z,101198.89
2022-11-06T00:06:49.528Z,101199.48
2022-11-06T00:09:20.088Z,101200.75
2022-11-06T00:11:47.585Z,101199.92
2022-11-06T00:14:14.426Z,101194.07
2022-11-06T00:16:42.758Z,101197.08
2022-11-06T00:19:09.654Z,101195.45
2022-11-06T00:21:36.489Z,101198.97
2022-11-06T00:24:04.363Z,101196.45
2022-11-06T00:26:31.376Z,101200.09
2022-11-06T00:28:58.397Z,101198.36
2022-11-06T00:31:29.630Z,101198.83
2022-11-06T00:33:57.379Z,101190.30
2022-11-06T00:36:24.395Z,101189.38
2022-11-06T00:38:52.532Z,101185.79
2022-11-06T00:41:19.288Z,101184.20
2022-11-06T00:43:58.616Z,101180.48
2022-11-06T00:46:25.691Z,101180.59
2022-11-06T00:48:53.078Z,101180.96
2022-11-06T00:51:22.039Z,101177.18
2022-11-06T00:53:48.779Z,101176.60
2022-11-06T00:56:16.898Z,101175.02
2022-11-06T00:58:43.724Z,101179.73
2022-11-06T01:01:12.355Z,101177.96
2022-11-06T01:03:39.752Z,101179.86
2022-11-06T01:06:14.837Z,101182.02
2022-11-06T01:08:41.735Z,101181.96
2022-11-06T01:11:10.866Z,101184.05
2022-11-06T01:13:37.603Z,101184.82
2022-11-06T01:16:05.734Z,101185.54
2022-11-06T01:18:32.546Z,101185.45
2022-11-06T01:20:59.195Z,101186.44
2022-11-06T01:23:25.860Z,101185.69
2022-11-06T01:25:59.204Z,101185.62
2022-11-06T01:28:26.144Z,101183.73
2022-11-06T01:30:53.159Z,101181.06
2022-11-06T01:33:19.935Z,101183.27
2022-11-06T01:35:47.386Z,101184.31
2022-11-06T01:38:14.440Z,101179.12
2022-11-06T01:40:42.252Z,101180.73
2022-11-06T01:43:13.747Z,101177.38
2022-11-06T01:45:40.927Z,101181.21
2022-11-06T01:48:07.567Z,101179.65
2022-11-06T01:50:34.239Z,101180.01
2022-11-06T01:53:02.415Z,101182.49
2022-11-06T01:55:31.875Z,101182.97
2022-11-06T01:57:58.828Z,101186.87
2022-11-06T02:00:26.481Z,101184.16
2022-11-06T02:02:53.437Z,101178.90
2022-11-06T02:05:20.261Z,101178.95
2022-11-06T02:07:46.947Z,101178.41
2022-11-06T02:10:13.618Z,101177.09
2022-11-06T02:12:52.053Z,101177.30
2022-11-06T02:15:31.298Z,101175.27
2022-11-06T02:18:11.610Z,101181.11
2022-11-06T02:21:06.845Z,101181.50
2022-11-06T02:24:11.131Z,101186.31
2022-11-06T02:26:59.418Z,101182.73
2022-11-06T02:29:31.663Z,101181.77
2022-11-06T02:31:59.524Z,101180.58
2022-11-06T02:34:26.215Z,101179.70
2022-11-06T02:37:13.899Z,101180.28
2022-11-06T02:39:41.781Z,101181.40
2022-11-06T02:42:08.582Z,101180.90
2022-11-06T02:44:36.524Z,101180.40
2022-11-06T02:47:06.115Z,101179.15
2022-11-06T02:49:42.089Z,101182.80
2022-11-06T02:52:14.296Z,101183.80
2022-11-06T02:54:43.294Z,101181.71
2022-11-06T02:57:11.124Z,101180.89
2022-11-06T02:59:45.506Z,101180.33
2022-11-06T03:02:16.659Z,101183.79
2022-11-06T03:05:00.603Z,101177.68
2022-11-06T03:07:45.910Z,101175.47
2022-11-06T03:10:12.617Z,101180.34
2022-11-06T03:13:02.900Z,101180.50
2022-11-06T03:15:39.731Z,101183.30
2022-11-06T03:18:13.282Z,101187.11
2022-11-06T03:20:40.910Z,101185.02
2022-11-06T03:23:12.034Z,101183.27
2022-11-06T03:25:46.472Z,101179.12
2022-11-06T03:28:34.563Z,101175.65
2022-11-06T03:31:07.535Z,101175.70
2022-11-06T03:33:37.686Z,101175.48
2022-11-06T03:36:24.478Z,101172.52
2022-11-06T03:39:06.069Z,101168.81
2022-11-06T03:42:02.494Z,101166.59
2022-11-06T03:44:29.201Z,101161.77
2022-11-06T03:47:00.598Z,101161.84
2022-11-06T03:49:31.887Z,101163.80
2022-11-06T03:52:01.185Z,101163.20
2022-11-06T03:54:31.242Z,101157.28
2022-11-06T03:56:59.506Z,101160.81
2022-11-06T03:59:29.219Z,101160.72
2022-11-06T04:01:56.037Z,101161.00
2022-11-06T04:04:28.984Z,101160.92
2022-11-06T04:07:05.420Z,101166.31
2022-11-06T04:09:51.731Z,101165.54
2022-11-06T04:12:39.211Z,101166.61
2022-11-06T04:15:06.321Z,101166.52
2022-11-06T04:17:32.966Z,101169.08
2022-11-06T04:20:01.754Z,101167.77
2022-11-06T04:22:55.787Z,101165.35
2022-11-06T04:25:52.709Z,101166.23
2022-11-06T04:28:30.567Z,101165.34
2022-11-06T04:31:06.243Z,101162.04
2022-11-06T04:33:38.914Z,101162.16
2022-11-06T04:36:16.474Z,101161.45
2022-11-06T04:38:52.376Z,101159.83
2022-11-06T04:41:37.231Z,101160.27
2022-11-06T04:44:12.089Z,101159.42
2022-11-06T04:47:00.243Z,101165.83
2022-11-06T04:49:27.213Z,101167.77
2022-11-06T04:51:53.916Z,101171.98
2022-11-06T04:54:20.531Z,101176.45
2022-11-06T04:56:47.190Z,101176.17
2022-11-06T04:59:15.162Z,101178.02
2022-11-06T05:01:41.910Z,101180.08
2022-11-06T05:04:08.878Z,101180.83
2022-11-06T05:06:35.554Z,101181.73
2022-11-06T05:09:02.245Z,101183.05
2022-11-06T05:11:28.899Z,101187.55
2022-11-06T05:13:55.627Z,101189.27
2022-11-06T05:16:22.268Z,101192.02
2022-11-06T05:18:48.953Z,101199.44
2022-11-06T05:21:34.311Z,101197.91
2022-11-06T05:24:00.959Z,101201.02
2022-11-06T05:26:27.586Z,101201.05
2022-11-06T05:28:54.371Z,101201.34
2022-11-06T05:31:21.084Z,101201.92
2022-11-06T05:33:47.775Z,101203.81
2022-11-06T05:36:14.439Z,101204.30
2022-11-06T05:38:41.088Z,101205.35
2022-11-06T05:41:07.739Z,101203.23
2022-11-06T05:43:34.423Z,101205.20
2022-11-06T05:46:01.114Z,101201.44
2022-11-06T05:48:28.367Z,101210.61
2022-11-06T05:51:01.174Z,101217.23
2022-11-06T05:53:28.178Z,101216.73
2022-11-06T05:55:54.919Z,101224.36
2022-11-06T05:58:21.639Z,101222.96
2022-11-06T06:00:48.962Z,101222.08
2022-11-06T06:03:15.662Z,101220.89
2022-11-06T06:05:42.338Z,101221.65
2022-11-06T06:08:08.959Z,101225.67
2022-11-06T06:10:35.604Z,101222.70
2022-11-06T06:13:02.267Z,101222.60
2022-11-06T06:15:28.868Z,101225.10
2022-11-06T06:17:55.578Z,101224.37
2022-11-06T06:20:22.238Z,101225.46
2022-11-06T06:22:56.099Z,101228.84
2022-11-06T06:25:23.380Z,101233.60
2022-11-06T06:27:50.353Z,101235.98
2022-11-06T06:30:17.410Z,101236.07
2022-11-06T06:32:44.111Z,101234.73
2022-11-06T06:35:10.890Z,101234.61
2022-11-06T06:37:37.574Z,101238.27
2022-11-06T06:40:04.829Z,101240.05
2022-11-06T06:42:31.678Z,101242.48
2022-11-06T06:44:58.494Z,101241.73
2022-11-06T06:47:25.214Z,101247.20
2022-11-06T06:49:51.923Z,101246.62
2022-11-06T06:52:18.715Z,101248.97
2022-11-06T06:54:45.404Z,101248.22
2022-11-06T06:57:12.184Z,101251.54
2022-11-06T06:59:38.795Z,101252.70
2022-11-06T07:02:05.789Z,101252.75
2022-11-06T07:04:32.729Z,101252.67
2022-11-06T07:06:59.363Z,101256.51
2022-11-06T07:09:26.421Z,101256.06
2022-11-06T07:11:53.174Z,101261.42
2022-11-06T07:14:19.853Z,101259.23
2022-11-06T07:16:52.576Z,101256.60
2022-11-06T07:19:20.351Z,101257.33
2022-11-06T07:21:47.052Z,101255.16
2022-11-06T07:24:13.700Z,101253.84
2022-11-06T07:26:40.469Z,101255.04
2022-11-06T07:29:08.180Z,101258.66
2022-11-06T07:31:34.926Z,101261.66
2022-11-06T07:34:01.659Z,101261.27
2022-11-06T07:36:28.392Z,101265.81
2022-11-06T07:38:55.043Z,101265.16
2022-11-06T07:41:21.846Z,101263.45
2022-11-06T07:43:49.246Z,101265.34
2022-11-06T07:46:15.952Z,101268.83
2022-11-06T07:48:42.603Z,101272.23
2022-11-06T07:51:10.559Z,101273.54
2022-11-06T07:53:37.531Z,101273.98
2022-11-06T07:56:06.520Z,101275.50
2022-11-06T07:58:33.313Z,101274.98
2022-11-06T08:01:00.165Z,101275.21
2022-11-06T08:03:27.358Z,101275.50
2022-11-06T08:05:53.980Z,101276.51
2022-11-06T08:08:20.946Z,101273.77
2022-11-06T08:10:47.896Z,101275.97
2022-11-06T08:13:15.955Z,101277.02
2022-11-06T08:15:42.679Z,101278.75
2022-11-06T08:18:09.886Z,101278.23
2022-11-06T08:20:37.606Z,101283.36
2022-11-06T08:23:06.170Z,101281.40
2022-11-06T08:25:33.020Z,101282.02
2022-11-06T08:28:00.516Z,101285.91
2022-11-06T08:30:27.929Z,101285.14
2022-11-06T08:32:55.790Z,101285.48
2022-11-06T08:35:23.983Z,101289.34
2022-11-06T08:37:50.930Z,101290.92
2022-11-06T08:40:17.770Z,101290.82
2022-11-06T08:42:44.445Z,101295.59
2022-11-06T08:45:11.102Z,101290.90
2022-11-06T08:47:37.898Z,101292.75
2022-11-06T08:50:04.848Z,101293.38
2022-11-06T08:52:34.269Z,101295.14
2022-11-06T08:55:01.225Z,101295.36
2022-11-06T08:57:28.349Z,101294.40
2022-11-06T08:59:54.955Z,101295.31
2022-11-06T09:02:21.789Z,101296.38
2022-11-06T09:04:48.565Z,101299.14
2022-11-06T09:07:16.076Z,101296.09
2022-11-06T09:11:43.018Z,101295.75
2022-11-06T09:14:09.823Z,101300.14
2022-11-06T09:16:36.482Z,101296.86
2022-11-06T09:19:03.478Z,101293.27
2022-11-06T09:21:30.166Z,101293.20
2022-11-06T09:23:56.842Z,101293.50
2022-11-06T09:26:23.991Z,101293.61
2022-11-06T09:28:50.695Z,101295.79
2022-11-06T09:31:17.326Z,101294.92
2022-11-06T09:33:44.192Z,101293.77
2022-11-06T09:36:11.185Z,101294.38
2022-11-06T09:38:38.047Z,101292.04
2022-11-06T09:41:05.364Z,101292.92
2022-11-06T09:44:04.847Z,101292.96
2022-11-06T09:46:59.258Z,101293.88
2022-11-06T09:49:32.998Z,101290.38
2022-11-06T09:52:04.243Z,101290.83
2022-11-06T09:54:42.912Z,101287.42
2022-11-06T09:57:13.232Z,101290.44
2022-11-06T09:59:41.468Z,101288.00
2022-11-06T10:02:38.195Z,101287.62
2022-11-06T10:05:10.695Z,101287.44
2022-11-06T10:07:40.108Z,101285.66
2022-11-06T10:10:08.551Z,101286.07
2022-11-06T10:12:43.946Z,101285.24
2022-11-06T10:15:21.390Z,101279.41
2022-11-06T10:18:10.872Z,101274.82
2022-11-06T10:20:40.831Z,101272.61
2022-11-06T10:23:21.000Z,101272.08
2022-11-06T10:25:57.059Z,101271.40
2022-11-06T10:28:42.511Z,101267.98
2022-11-06T10:31:23.535Z,101265.69
2022-11-06T10:34:05.959Z,101260.56
2022-11-06T10:36:49.754Z,101261.39
2022-11-06T10:39:31.114Z,101261.75
2022-11-06T10:42:05.256Z,101260.78
2022-11-06T10:44:36.224Z,101260.17
2022-11-06T10:47:27.955Z,101260.48
2022-11-06T10:49:56.264Z,101254.06
2022-11-06T10:52:32.253Z,101254.00
2022-11-06T10:55:37.164Z,101254.14
2022-11-06T10:58:10.017Z,101251.60
2022-11-06T11:00:36.974Z,101252.56
2022-11-06T11:03:08.031Z,101253.52
2022-11-06T11:05:43.021Z,101251.31
2022-11-06T11:08:40.470Z,101248.21
2022-11-06T11:11:15.704Z,101244.48
2022-11-06T11:13:44.056Z,101244.11
2022-11-06T11:16:20.280Z,101242.52
2022-11-06T11:18:47.298Z,101241.96
2022-11-06T11:21:20.515Z,101242.27
2022-11-06T11:24:02.664Z,101238.36
2022-11-06T11:26:30.135Z,101234.20
2022-11-06T11:29:01.482Z,101232.29
2022-11-06T11:31:32.630Z,101233.13
2022-11-06T11:34:01.223Z,101228.21
2022-11-06T11:36:46.950Z,101229.20
2022-11-06T11:39:14.373Z,101226.29
2022-11-06T11:41:40.987Z,101226.41
2022-11-06T11:44:10.878Z,101225.78
2022-11-06T11:46:47.831Z,101222.95
2022-11-06T11:49:32.780Z,101224.92
2022-11-06T11:52:04.141Z,101222.58
2022-11-06T11:54:32.481Z,101221.20
2022-11-06T11:57:06.608Z,101221.82
2022-11-06T11:59:38.479Z,101223.71
2022-11-06T12:02:35.926Z,101221.12
2022-11-06T12:05:13.908Z,101218.52
2022-11-06T12:07:47.635Z,101221.23
2022-11-06T12:10:34.771Z,101226.77
2022-11-06T12:13:23.105Z,101223.11
2022-11-06T12:16:00.502Z,101227.56
2022-11-06T12:18:33.375Z,101222.77
2022-11-06T12:21:05.898Z,101221.08
2022-11-06T12:23:49.404Z,101226.70
2022-11-06T12:26:38.409Z,101225.42
2022-11-06T12:29:12.811Z,101229.71
2022-11-06T12:31:59.833Z,101233.11
2022-11-06T12:35:01.906Z,101234.92
2022-11-06T12:37:47.414Z,101234.33
2022-11-06T12:40:31.323Z,101235.77
2022-11-06T12:43:04.682Z,101234.06
2022-11-06T12:46:02.647Z,101232.55
2022-11-06T12:48:41.599Z,101231.83
2022-11-06T12:51:26.444Z,101229.39
2022-11-06T12:54:12.296Z,101229.28
2022-11-06T12:56:57.379Z,101229.97
2022-11-06T12:59:36.458Z,101231.75
2022-11-06T13:02:32.306Z,101238.30
2022-11-06T13:05:05.480Z,101239.23
2022-11-06T13:07:41.384Z,101235.33
2022-11-06T13:10:17.258Z,101238.02
2022-11-06T13:12:50.389Z,101240.86
2022-11-06T13:15:37.602Z,101242.56
2022-11-06T13:18:16.591Z,101245.27
2022-11-06T13:20:51.102Z,101246.61
2022-11-06T13:23:23.785Z,101247.00
2022-11-06T13:26:12.243Z,101244.40
2022-11-06T13:28:47.045Z,101248.60
2022-11-06T13:31:15.131Z,101248.03
2022-11-06T13:33:54.418Z,101248.20
2022-11-06T13:36:21.122Z,101248.45
2022-11-06T13:38:49.542Z,101244.60
2022-11-06T13:41:20.271Z,101241.92
2022-11-06T13:43:57.101Z,101240.25
2022-11-06T13:46:48.339Z,101242.17
2022-11-06T13:49:37.083Z,101235.39
2022-11-06T13:52:27.350Z,101237.33
2022-11-06T13:55:04.936Z,101240.64
2022-11-06T13:57:46.540Z,101237.92
2022-11-06T14:00:22.927Z,101236.16
2022-11-06T18:56:59.603Z,101183.11
2022-11-06T18:59:28.286Z,101185.98
2022-11-06T19:01:55.460Z,101186.61
2022-11-06T19:04:22.642Z,101186.30
2022-11-06T19:06:50.634Z,101186.80
2022-11-06T19:09:17.723Z,101188.70
2022-11-06T19:11:45.243Z,101189.09
2022-11-06T19:14:12.499Z,101192.14
2022-11-06T19:16:39.672Z,101191.14
2022-11-06T19:19:07.535Z,101192.39
2022-11-06T19:21:34.634Z,101191.38
2022-11-06T19:24:04.684Z,101192.29
2022-11-06T19:26:33.096Z,101192.10
2022-11-06T19:29:00.409Z,101195.04
2022-11-06T19:31:29.843Z,101199.02
2022-11-06T19:33:58.271Z,101195.46
2022-11-06T19:36:25.606Z,101194.55
2022-11-06T19:38:53.361Z,101198.04
2022-11-06T19:41:21.171Z,101199.50
2022-11-06T19:43:48.289Z,101194.85
2022-11-06T19:46:23.884Z,101197.11
2022-11-06T19:48:51.809Z,101193.41
2022-11-06T19:51:19.038Z,101194.91
2022-11-06T19:53:45.788Z,101198.24
2022-11-06T19:56:16.728Z,101197.36
2022-11-06T19:58:43.678Z,101197.57
2022-11-06T20:01:13.145Z,101197.72
2022-11-06T20:03:40.120Z,101196.67
2022-11-06T20:06:08.159Z,101195.64
2022-11-06T20:08:36.885Z,101194.61
2022-11-06T20:11:05.070Z,101194.80
2022-11-06T20:13:36.516Z,101190.82
2022-11-06T20:16:04.244Z,101193.48
2022-11-06T20:18:31.342Z,101192.74
2022-11-06T20:21:04.015Z,101195.09
2022-11-06T20:23:32.613Z,101189.45
2022-11-06T20:25:59.247Z,101188.73
2022-11-06T20:28:26.339Z,101183.50
2022-11-06T20:30:53.440Z,101182.87
2022-11-06T20:33:20.302Z,101184.44
2022-11-06T20:35:47.319Z,101184.03
2022-11-06T20:38:14.775Z,101184.02
2022-11-06T20:40:42.568Z,101182.74
2022-11-06T20:43:09.503Z,101179.44
2022-11-06T20:45:37.707Z,101182.84
2022-11-06T20:48:05.430Z,101179.88
2022-11-06T20:50:32.611Z,101179.94
2022-11-06T20:52:59.704Z,101178.48
2022-11-06T20:55:26.659Z,101171.86
2022-11-06T20:57:53.631Z,101169.37
2022-11-06T21:00:20.740Z,101166.89
2022-11-06T21:02:48.046Z,101167.67
2022-11-06T21:05:15.072Z,101167.29
2022-11-06T21:07:41.899Z,101168.17
2022-11-06T21:10:10.985Z,101169.39
2022-11-06T21:12:38.070Z,101165.76
2022-11-06T21:15:05.542Z,101163.29
2022-11-06T21:17:32.649Z,101163.89
2022-11-06T21:19:59.445Z,101161.08
2022-11-06T21:22:26.919Z,101157.81
2022-11-06T21:24:54.020Z,101161.31
2022-11-06T21:27:21.136Z,101159.64
2022-11-06T21:29:48.568Z,101156.55
2022-11-06T21:32:15.409Z,101155.61
2022-11-06T21:34:42.403Z,101155.05
2022-11-06T21:37:09.277Z,101155.80
2022-11-06T21:39:36.820Z,101159.41
2022-11-06T21:42:04.827Z,101153.59
2022-11-06T21:44:31.792Z,101156.69
2022-11-06T21:46:58.595Z,101157.61
2022-11-06T21:49:25.350Z,101154.09
2022-11-06T21:51:52.082Z,101155.05
2022-11-06T21:54:37.579Z,101153.62
2022-11-06T21:57:04.348Z,101152.91
2022-11-06T21:59:31.383Z,101149.05
2022-11-06T22:01:58.401Z,101147.20
2022-11-06T22:04:25.381Z,101144.21
2022-11-06T22:06:52.713Z,101145.73
2022-11-06T22:09:24.763Z,101142.81
2022-11-06T22:11:52.619Z,101142.74
2022-11-06T22:14:19.720Z,101145.52
2022-11-06T22:16:47.043Z,101144.55
2022-11-06T22:19:14.587Z,101141.11
2022-11-06T22:21:42.038Z,101140.42
2022-11-06T22:24:11.035Z,101138.16
2022-11-06T22:26:37.904Z,101142.06
2022-11-06T22:29:07.719Z,101138.87
2022-11-06T22:31:34.618Z,101136.67
2022-11-06T22:34:01.416Z,101136.20
2022-11-06T22:36:28.263Z,101140.27
2022-11-06T22:38:55.508Z,101137.71
2022-11-06T22:41:24.113Z,101137.88
2022-11-06T22:43:51.586Z,101136.45
2022-11-06T22:46:20.478Z,101136.10
2022-11-06T22:48:47.383Z,101135.55
2022-11-06T22:51:15.917Z,101137.11
2022-11-06T22:53:42.656Z,101136.02
2022-11-06T22:56:09.692Z,101135.92
2022-11-06T22:58:36.359Z,101134.13
2022-11-06T23:01:03.149Z,101140.09
2022-11-06T23:03:30.318Z,101138.08
2022-11-06T23:05:58.365Z,101137.71
2022-11-06T23:08:26.164Z,101137.83
2022-11-06T23:10:54.026Z,101136.19
2022-11-06T23:13:20.798Z,101139.73
2022-11-06T23:15:47.513Z,101141.06
2022-11-06T23:18:14.870Z,101141.86
2022-11-06T23:20:41.565Z,101140.93
2022-11-06T23:23:08.280Z,101142.27
2022-11-06T23:25:35.031Z,101148.27
2022-11-06T23:28:01.812Z,101150.34
2022-11-06T23:30:30.056Z,101151.95
2022-11-06T23:32:57.066Z,101151.63
2022-11-06T23:35:28.096Z,101157.16
2022-11-06T23:37:59.329Z,101154.61
2022-11-06T23:40:26.448Z,101152.93
2022-11-06T23:42:56.131Z,101152.64
2022-11-06T23:45:48.894Z,101152.19
2022-11-06T23:48:18.921Z,101153.33
2022-11-06T23:50:47.106Z,101155.69
2022-11-06T23:53:15.728Z,101152.54
2022-11-06T23:55:42.748Z,101152.09
2022-11-06T23:58:09.475Z,101154.91
